.
WxDataArchive / Data Records for 2013-01-28
2013-01-27 January 2013 2013-01-29

Data Records for Monday, 28 January 2013

Time	Temp	Chill	HIndex	Humid	Dewpt	 Wind 	HiWind	WindDir	Rain 	Barom 
-----	----	-----	------	-----	-----	------	------	-------	-----	----- 
00:00	32.9	32.9	32.9	91	30.6	2	5	90	0.00	30.115 
00:05	32.9	32.9	32.9	91	30.6	2	4	135	0.00	30.115 
00:10	32.9	32.9	32.9	91	30.6	2	7	90	0.00	30.115 
00:15	32.9	32.9	32.9	91	30.6	2	5	90	0.00	30.103 
00:20	32.9	32.9	32.9	91	30.6	2	5	90	0.00	30.103 
00:25	32.9	32.9	32.9	92	30.8	2	6	112	0.00	30.103 
00:30	33.1	33.1	33.1	92	31.0	3	5	112	0.00	30.089 
00:35	33.1	33.1	33.1	92	31.0	2	6	90	0.00	30.089 
00:40	33.1	33.1	33.1	92	31.0	2	4	112	0.00	30.089 
00:45	33.2	33.2	33.2	92	31.1	2	4	112	0.00	30.085 
00:50	33.2	33.2	33.2	92	31.1	2	7	112	0.00	30.085 
00:55	33.2	33.2	33.2	92	31.1	3	7	90	0.00	30.085 
01:00	33.2	33.2	33.2	92	31.1	2	6	90	0.00	30.079 
01:05	33.4	33.4	33.4	92	31.3	3	7	90	0.00	30.079 
01:10	33.4	33.4	33.4	92	31.3	2	5	90	0.00	30.079 
01:15	33.5	33.5	33.5	92	31.4	2	5	90	0.00	30.074 
01:20	33.5	33.5	33.5	93	31.7	2	5	90	0.00	30.074 
01:25	33.7	33.7	33.7	93	31.9	2	4	90	0.00	30.074 
01:30	33.7	33.7	33.7	93	31.9	2	9	90	0.00	30.062 
01:35	33.8	33.8	33.8	93	32.0	2	7	90	0.00	30.062 
01:40	34.0	34.0	34.0	93	32.2	2	6	112	0.00	30.062 
01:45	34.1	34.1	34.1	93	32.3	2	6	90	0.00	30.051 
01:50	34.1	34.1	34.1	93	32.3	1	6	90	0.00	30.051 
01:55	34.3	34.3	34.3	93	32.5	2	5	90	0.00	30.051 
02:00	34.4	34.4	34.4	93	32.6	2	5	68	0.00	30.046 
02:05	34.7	34.7	34.7	93	32.9	2	7	112	0.00	30.046 
02:10	34.7	34.7	34.7	93	32.9	3	5	112	0.00	30.046 
02:15	34.9	34.9	34.9	93	33.1	2	9	90	0.00	30.027 
02:20	35.2	35.2	35.2	93	33.4	2	6	90	0.00	30.027 
02:25	35.3	35.3	35.3	94	33.7	1	5	90	0.00	30.027 
02:30	35.3	35.3	35.3	94	33.7	1	3	22	0.00	30.034 
02:35	35.2	35.2	35.2	94	33.6	0	2	248	0.00	30.034 
02:40	35.2	35.2	35.2	94	33.6	1	2	248	0.00	30.034 
02:45	35.3	35.3	35.3	94	33.7	1	3	248	0.00	30.030 
02:50	35.3	35.3	35.3	94	33.7	0	3	225	0.00	30.030 
02:55	35.5	35.5	35.5	94	33.9	0	4	225	0.00	30.030 
03:00	35.6	35.6	35.6	94	34.0	0	2	225	0.00	30.023 
03:05	35.6	35.6	35.6	94	34.0	0	1	225	0.00	30.023 
03:10	35.6	35.6	35.6	94	34.0	0	3	225	0.01	30.023 
03:15	35.8	35.8	35.8	94	34.2	1	3	112	0.00	30.016 
03:20	35.9	35.9	35.9	94	34.3	0	2	90	0.00	30.016 
03:25	36.0	36.0	36.0	94	34.4	0	2	90	0.00	30.016 
03:30	36.2	36.2	36.2	95	34.9	1	5	45	0.00	30.004 
03:35	36.5	36.5	36.5	95	35.2	1	3	90	0.00	30.004 
03:40	36.6	36.6	36.6	95	35.3	1	2	90	0.00	30.004 
03:45	36.8	36.8	36.8	95	35.5	0	2	90	0.00	29.993 
03:50	36.9	36.9	36.9	95	35.6	0	2	90	0.00	29.993 
03:55	37.0	37.0	37.0	95	35.7	0	1	90	0.00	29.993 
04:00	37.2	37.2	37.2	95	35.9	0	2	90	0.00	29.991 
04:05	37.2	37.2	37.2	95	35.9	0	2	90	0.00	29.991 
04:10	37.3	37.3	37.3	95	36.0	0	3	90	0.00	29.991 
04:15	37.5	37.5	37.5	95	36.2	0	2	270	0.00	29.992 
04:20	37.6	37.6	37.6	95	36.3	0	3	248	0.00	29.992 
04:25	37.8	37.8	37.8	95	36.5	0	3	248	0.00	29.992 
04:30	37.8	37.8	37.8	95	36.5	0	2	248	0.00	29.986 
04:35	37.9	37.9	37.9	95	36.6	1	3	248	0.00	29.986 
04:40	38.0	38.0	38.0	95	36.7	0	1	112	0.00	29.986 
04:45	38.2	38.2	38.2	95	36.9	0	4	248	0.00	29.976 
04:50	38.3	38.3	38.3	95	37.0	0	3	248	0.00	29.976 
04:55	38.6	38.6	38.6	96	37.6	0	3	248	0.00	29.976 
05:00	38.8	38.8	38.8	96	37.8	0	3	248	0.00	29.972 
05:05	38.8	38.8	38.8	96	37.8	0	2	248	0.00	29.972 
05:10	38.9	38.9	38.9	96	37.9	0	2	248	0.00	29.972 
05:15	38.9	38.9	38.9	96	37.9	0	2	248	0.00	29.969 
05:20	39.1	39.1	39.1	96	38.1	0	1	248	0.00	29.969 
05:25	39.2	39.2	39.2	96	38.2	0	2	248	0.00	29.969 
05:30	39.5	39.5	39.5	96	38.5	0	2	248	0.00	29.957 
05:35	40.1	40.1	40.1	96	39.1	1	4	248	0.00	29.957 
05:40	40.5	40.5	40.5	96	39.5	1	4	248	0.00	29.957 
05:45	40.9	40.9	40.9	96	39.8	1	3	248	0.01	29.954 
05:50	41.5	41.5	41.5	96	40.4	2	5	248	0.00	29.954 
05:55	41.9	41.9	41.9	96	40.8	2	5	248	0.01	29.954 
06:00	42.3	42.3	42.3	96	41.2	2	7	248	0.00	29.952 
06:05	42.5	42.5	42.5	96	41.4	2	9	248	0.01	29.952 
06:10	42.6	42.6	42.6	96	41.5	1	5	248	0.00	29.952 
06:15	42.8	42.8	42.8	96	41.7	1	5	248	0.01	29.950 
06:20	42.8	42.8	42.8	96	41.7	1	4	248	0.00	29.950 
06:25	43.1	43.1	43.1	96	42.0	2	5	248	0.00	29.950 
06:30	43.2	43.2	43.2	96	42.1	2	6	248	0.00	29.943 
06:35	43.2	43.2	43.2	96	42.1	2	7	248	0.01	29.943 
06:40	43.3	43.3	43.3	96	42.2	2	6	248	0.00	29.943 
06:45	43.5	43.5	43.5	96	42.4	2	9	248	0.00	29.939 
06:50	43.6	43.6	43.6	96	42.5	2	10	248	0.00	29.939 
06:55	43.6	43.6	43.6	96	42.5	1	5	248	0.00	29.939 
07:00	43.6	43.6	43.6	96	42.5	2	5	248	0.00	29.943 
07:05	43.8	43.8	43.8	96	42.7	2	6	225	0.00	29.943 
07:10	43.8	43.8	43.8	96	42.7	1	6	225	0.00	29.943 
07:15	43.9	43.9	43.9	96	42.8	2	6	248	0.00	29.948 
07:20	43.9	43.9	43.9	96	42.8	2	6	248	0.00	29.948 
07:25	44.1	44.1	44.1	96	43.0	2	7	248	0.00	29.948 
07:30	44.2	44.2	44.2	96	43.1	2	7	248	0.00	29.946 
07:35	44.3	44.3	44.3	96	43.2	3	7	248	0.00	29.946 
07:40	44.3	44.3	44.3	96	43.2	2	6	248	0.00	29.946 
07:45	44.5	44.5	44.5	96	43.4	3	9	248	0.00	29.937 
07:50	44.5	44.5	44.5	96	43.4	2	6	248	0.00	29.937 
07:55	44.5	44.5	44.5	96	43.4	2	5	248	0.00	29.937 
08:00	44.5	44.5	44.5	96	43.4	2	5	248	0.00	29.942 
08:05	44.6	44.6	44.6	96	43.5	3	9	248	0.00	29.942 
08:10	44.6	44.6	44.6	96	43.5	3	9	248	0.00	29.942 
08:15	44.6	44.6	44.6	96	43.5	2	10	248	0.00	29.936 
08:20	44.6	44.6	44.6	96	43.5	1	6	248	0.00	29.936 
08:25	44.8	44.8	44.8	96	43.7	3	11	248	0.00	29.936 
08:30	44.9	44.9	44.9	96	43.8	2	8	248	0.00	29.937 
08:35	45.1	45.1	45.1	96	44.0	2	5	248	0.00	29.937 
08:40	45.1	45.1	45.1	96	44.0	3	9	248	0.00	29.937 
08:45	45.2	45.2	45.2	96	44.1	3	6	248	0.00	29.934 
08:50	45.2	45.2	45.2	96	44.1	2	7	248	0.00	29.934 
08:55	45.4	45.4	45.4	96	44.3	3	13	270	0.00	29.934 
09:00	45.4	45.4	45.4	96	44.3	3	7	248	0.00	29.938 
09:05	45.5	45.5	45.5	96	44.4	2	6	248	0.00	29.938 
09:10	45.7	45.7	45.7	96	44.6	3	10	248	0.00	29.938 
09:15	45.8	45.8	45.8	96	44.7	2	7	248	0.00	29.935 
09:20	45.8	45.8	45.8	96	44.7	2	9	248	0.00	29.935 
09:25	46.0	46.0	46.0	96	44.9	3	9	248	0.00	29.935 
09:30	46.0	46.0	46.0	96	44.9	3	7	248	0.00	29.936 
09:35	46.1	46.1	46.1	96	45.0	2	9	248	0.01	29.936 
09:40	46.1	46.1	46.1	96	45.0	2	7	248	0.00	29.936 
09:45	46.2	46.2	46.2	96	45.1	2	10	225	0.00	29.932 
09:50	46.2	46.2	46.2	95	44.8	2	9	248	0.00	29.932 
09:55	46.2	46.2	46.2	95	44.8	3	12	248	0.00	29.932 
10:00	46.4	46.4	46.4	96	45.3	2	7	248	0.00	29.938 
10:05	46.4	46.4	46.4	96	45.3	2	5	248	0.00	29.938 
10:10	46.5	46.5	46.5	95	45.1	2	7	248	0.00	29.938 
10:15	46.5	46.5	46.5	95	45.1	3	7	248	0.00	29.937 
10:20	46.7	46.7	46.7	95	45.3	2	5	248	0.00	29.937 
10:25	46.7	46.7	46.7	95	45.3	2	7	248	0.00	29.937 
10:30	46.7	46.7	46.7	95	45.3	2	7	248	0.00	29.942 
10:35	46.7	46.7	46.7	95	45.3	2	9	248	0.00	29.942 
10:40	46.8	46.8	46.8	95	45.4	2	7	248	0.00	29.942 
10:45	46.8	46.8	46.8	95	45.4	2	6	248	0.00	29.945 
10:50	47.0	47.0	47.0	95	45.6	3	7	248	0.00	29.945 
10:55	47.1	47.1	47.1	95	45.7	2	7	248	0.00	29.945 
11:00	47.1	47.1	47.1	95	45.7	2	6	248	0.00	29.947 
11:05	47.3	47.3	47.3	95	45.9	2	6	248	0.00	29.947 
11:10	47.3	47.3	47.3	95	45.9	1	7	248	0.00	29.947 
11:15	47.3	47.3	47.3	95	45.9	2	5	248	0.00	29.949 
11:20	47.4	45.9	47.4	95	46.0	4	9	248	0.00	29.949 
11:25	47.4	47.4	47.4	95	46.0	3	6	248	0.00	29.949 
11:30	47.6	47.6	47.6	95	46.2	2	7	248	0.00	29.945 
11:35	47.6	47.6	47.6	95	46.2	2	6	248	0.00	29.945 
11:40	47.7	47.7	47.7	95	46.3	3	9	248	0.00	29.945 
11:45	47.7	47.7	47.7	95	46.3	3	7	248	0.00	29.945 
11:50	47.9	47.9	47.9	95	46.5	2	6	248	0.00	29.945 
11:55	47.9	47.9	47.9	95	46.5	2	6	248	0.00	29.945 
12:00	47.9	47.9	47.9	94	46.3	2	6	248	0.00	29.944 
12:05	48.0	48.0	48.0	94	46.4	2	7	248	0.00	29.944 
12:10	48.0	48.0	48.0	94	46.4	2	8	248	0.00	29.944 
12:15	48.0	48.0	48.0	94	46.4	2	7	248	0.00	29.939 
12:20	48.2	48.2	48.2	94	46.6	2	5	248	0.00	29.939 
12:25	48.2	48.2	48.2	94	46.6	2	5	248	0.00	29.939 
12:30	48.2	48.2	48.2	94	46.6	2	7	225	0.00	29.936 
12:35	48.2	48.2	48.2	94	46.6	3	6	248	0.00	29.936 
12:40	48.3	48.3	48.3	94	46.7	3	9	248	0.00	29.936 
12:45	48.3	48.3	48.3	94	46.7	3	7	248	0.00	29.931 
12:50	48.3	48.3	48.3	94	46.7	2	7	225	0.00	29.931 
12:55	48.3	48.3	48.3	94	46.7	2	7	248	0.00	29.931 
13:00	48.3	48.3	48.3	94	46.7	2	7	248	0.00	29.929 
13:05	48.3	48.3	48.3	94	46.7	2	5	248	0.00	29.929 
13:10	48.3	48.3	48.3	94	46.7	1	5	248	0.00	29.929 
13:15	48.3	48.3	48.3	94	46.7	2	6	248	0.00	29.926 
13:20	48.3	48.3	48.3	94	46.7	3	7	248	0.00	29.926 
13:25	48.5	48.5	48.5	94	46.9	3	9	248	0.00	29.926 
13:30	48.5	48.5	48.5	94	46.9	2	5	248	0.00	29.926 
13:35	48.5	48.5	48.5	94	46.9	2	5	248	0.00	29.926 
13:40	48.5	48.5	48.5	94	46.9	2	5	248	0.00	29.926 
13:45	48.5	48.5	48.5	94	46.9	1	4	248	0.00	29.925 
13:50	48.5	48.5	48.5	94	46.9	2	7	248	0.00	29.925 
13:55	48.5	48.5	48.5	94	46.9	1	5	248	0.00	29.925 
14:00	48.5	48.5	48.5	94	46.9	2	6	248	0.00	29.924 
14:05	48.5	48.5	48.5	94	46.9	2	11	225	0.00	29.924 
14:10	48.5	48.5	48.5	95	47.1	1	5	248	0.00	29.924 
14:15	48.5	48.5	48.5	95	47.1	2	5	248	0.00	29.917 
14:20	48.5	48.5	48.5	95	47.1	2	8	248	0.00	29.917 
14:25	48.6	48.6	48.6	95	47.2	2	5	248	0.00	29.917 
14:30	48.6	48.6	48.6	95	47.2	2	4	248	0.00	29.923 
14:35	48.6	48.6	48.6	95	47.2	1	4	248	0.00	29.923 
14:40	48.6	48.6	48.6	95	47.2	1	4	248	0.00	29.923 
14:45	48.8	48.8	48.8	95	47.4	2	6	248	0.00	29.920 
14:50	48.8	48.8	48.8	95	47.4	1	7	248	0.00	29.920 
14:55	48.8	48.8	48.8	95	47.4	2	5	248	0.00	29.920 
15:00	48.8	48.8	48.8	95	47.4	1	4	248	0.00	29.920 
15:05	48.9	48.9	48.9	95	47.5	1	4	248	0.00	29.920 
15:10	48.9	48.9	48.9	95	47.5	1	5	248	0.00	29.920 
15:15	48.9	48.9	48.9	95	47.5	1	3	248	0.00	29.923 
15:20	48.9	48.9	48.9	95	47.5	1	4	248	0.00	29.923 
15:25	48.9	48.9	48.9	95	47.5	1	3	248	0.00	29.923 
15:30	48.9	48.9	48.9	95	47.5	1	3	248	0.00	29.927 
15:35	48.9	48.9	48.9	95	47.5	1	3	248	0.00	29.927 
15:40	48.9	48.9	48.9	95	47.5	1	4	248	0.00	29.927 
15:45	48.9	48.9	48.9	95	47.5	1	4	248	0.00	29.936 
15:50	48.9	48.9	48.9	95	47.5	1	4	248	0.00	29.936 
15:55	48.9	48.9	48.9	95	47.5	0	2	248	0.00	29.936 
16:00	48.9	48.9	48.9	95	47.5	0	3	248	0.00	29.938 
16:05	48.9	48.9	48.9	96	47.8	1	4	248	0.00	29.938 
16:10	48.9	48.9	48.9	95	47.5	1	3	248	0.00	29.938 
16:15	48.9	48.9	48.9	96	47.8	1	3	248	0.00	29.939 
16:20	48.9	48.9	48.9	96	47.8	0	5	248	0.00	29.939 
16:25	48.8	48.8	48.8	96	47.7	1	3	248	0.00	29.939 
16:30	48.8	48.8	48.8	96	47.7	0	1	248	0.00	29.947 
16:35	48.8	48.8	48.8	96	47.7	0	2	248	0.00	29.947 
16:40	48.8	48.8	48.8	96	47.7	1	4	248	0.00	29.947 
16:45	48.8	48.8	48.8	96	47.7	1	3	248	0.00	29.953 
16:50	48.8	48.8	48.8	96	47.7	1	3	248	0.00	29.953 
16:55	48.6	48.6	48.6	96	47.5	0	2	248	0.00	29.953 
17:00	48.6	48.6	48.6	96	47.5	0	1	248	0.00	29.958 
17:05	48.6	48.6	48.6	96	47.5	0	2	248	0.00	29.958 
17:10	48.6	48.6	48.6	96	47.5	0	2	248	0.00	29.958 
17:15	48.6	48.6	48.6	96	47.5	0	1	248	0.00	29.958 
17:20	48.5	48.5	48.5	96	47.4	0	1	248	0.00	29.958 
17:25	48.5	48.5	48.5	96	47.4	0	1	248	0.00	29.958 
17:30	48.5	48.5	48.5	96	47.4	0	1	248	0.00	29.960 
17:35	48.5	48.5	48.5	96	47.4	0	2	248	0.00	29.960 
17:40	48.3	48.3	48.3	96	47.2	0	1	248	0.00	29.960 
17:45	48.3	48.3	48.3	96	47.2	0	1	248	0.01	29.965 
17:50	48.3	48.3	48.3	96	47.2	0	2	248	0.00	29.965 
17:55	48.3	48.3	48.3	96	47.2	0	1	248	0.00	29.965 
18:00	48.3	48.3	48.3	96	47.2	0	1	248	0.00	29.967 
18:05	48.2	48.2	48.2	96	47.1	0	1	248	0.00	29.967 
18:10	48.2	48.2	48.2	96	47.1	0	1	248	0.00	29.967 
18:15	48.2	48.2	48.2	96	47.1	0	2	248	0.00	29.967 
18:20	48.2	48.2	48.2	96	47.1	0	1	248	0.00	29.967 
18:25	48.2	48.2	48.2	96	47.1	0	2	248	0.00	29.967 
18:30	48.0	48.0	48.0	96	46.9	0	1	248	0.00	29.974 
18:35	48.0	48.0	48.0	96	46.9	0	1	248	0.00	29.974 
18:40	48.0	48.0	48.0	96	46.9	0	1	248	0.00	29.974 
18:45	48.0	48.0	48.0	96	46.9	0	1	248	0.00	29.978 
18:50	48.0	48.0	48.0	96	46.9	0	1	248	0.00	29.978 
18:55	48.0	48.0	48.0	96	46.9	0	3	248	0.00	29.978 
19:00	48.2	48.2	48.2	96	47.1	1	3	248	0.00	29.980 
19:05	48.2	48.2	48.2	96	47.1	0	3	248	0.00	29.980 
19:10	48.2	48.2	48.2	96	47.1	0	2	248	0.00	29.980 
19:15	48.2	48.2	48.2	96	47.1	0	2	248	0.00	29.980 
19:20	48.2	48.2	48.2	96	47.1	0	2	248	0.00	29.980 
19:25	48.2	48.2	48.2	96	47.1	0	2	248	0.00	29.980 
19:30	48.2	48.2	48.2	96	47.1	0	3	248	0.00	29.981 
19:35	48.2	48.2	48.2	96	47.1	0	2	248	0.00	29.981 
19:40	48.2	48.2	48.2	96	47.1	0	1	248	0.00	29.981 
19:45	48.2	48.2	48.2	96	47.1	0	2	248	0.00	29.982 
19:50	48.0	48.0	48.0	96	46.9	0	1	248	0.00	29.982 
19:55	48.0	48.0	48.0	96	46.9	0	1	248	0.00	29.982 
20:00	48.0	48.0	48.0	96	46.9	0	2	248	0.01	29.986 
20:05	48.0	48.0	48.0	96	46.9	0	1	248	0.00	29.986 
20:10	48.0	48.0	48.0	96	46.9	0	1	248	0.00	29.986 
20:15	48.0	48.0	48.0	96	46.9	0	1	248	0.00	29.986 
20:20	47.9	47.9	47.9	96	46.8	0	1	248	0.00	29.986 
20:25	47.9	47.9	47.9	96	46.8	0	0	---	0.00	29.986 
20:30	47.7	47.7	47.7	96	46.6	0	1	248	0.00	29.985 
20:35	47.7	47.7	47.7	96	46.6	0	1	248	0.00	29.985 
20:40	47.6	47.6	47.6	96	46.5	0	0	---	0.00	29.985 
20:45	47.4	47.4	47.4	96	46.3	0	0	---	0.00	29.981 
20:50	47.3	47.3	47.3	96	46.2	0	0	---	0.00	29.981 
20:55	47.3	47.3	47.3	96	46.2	0	0	---	0.00	29.981 
21:00	47.1	47.1	47.1	96	46.0	0	0	---	0.00	29.989 
21:05	47.1	47.1	47.1	96	46.0	0	0	---	0.00	29.989 
21:10	47.1	47.1	47.1	96	46.0	0	0	---	0.00	29.989 
21:15	47.1	47.1	47.1	96	46.0	0	0	---	0.00	29.982 
21:20	47.0	47.0	47.0	96	45.9	0	0	---	0.00	29.982 
21:25	47.0	47.0	47.0	96	45.9	0	0	---	0.00	29.982 
21:30	47.0	47.0	47.0	96	45.9	0	0	---	0.00	29.982 
21:35	47.0	47.0	47.0	96	45.9	0	0	---	0.00	29.982 
21:40	46.8	46.8	46.8	96	45.7	0	0	---	0.00	29.982 
21:45	46.8	46.8	46.8	96	45.7	0	0	---	0.00	29.985 
21:50	46.5	46.5	46.5	96	45.4	0	0	---	0.00	29.985 
21:55	46.5	46.5	46.5	96	45.4	0	0	---	0.00	29.985 
22:00	46.4	46.4	46.4	96	45.3	0	0	---	0.00	29.986 
22:05	46.2	46.2	46.2	96	45.1	0	0	---	0.00	29.986 
22:10	46.1	46.1	46.1	96	45.0	0	0	---	0.00	29.986 
22:15	46.0	46.0	46.0	96	44.9	0	0	---	0.00	29.982 
22:20	45.8	45.8	45.8	96	44.7	0	0	---	0.00	29.982 
22:25	45.8	45.8	45.8	96	44.7	0	0	---	0.00	29.982 
22:30	45.8	45.8	45.8	96	44.7	0	0	---	0.00	29.985 
22:35	45.8	45.8	45.8	96	44.7	0	0	---	0.00	29.985 
22:40	45.7	45.7	45.7	96	44.6	0	0	---	0.00	29.985 
22:45	45.7	45.7	45.7	96	44.6	0	0	---	0.00	29.982 
22:50	45.7	45.7	45.7	96	44.6	0	0	---	0.00	29.982 
22:55	45.5	45.5	45.5	96	44.4	0	0	---	0.00	29.982 
23:00	45.5	45.5	45.5	96	44.4	0	0	---	0.00	29.982 
23:05	45.4	45.4	45.4	96	44.3	0	0	---	0.00	29.982 
23:10	45.4	45.4	45.4	96	44.3	0	0	---	0.00	29.982 
23:15	45.2	45.2	45.2	96	44.1	0	0	---	0.00	29.982 
23:20	45.2	45.2	45.2	96	44.1	0	0	---	0.00	29.982 
23:25	45.1	45.1	45.1	96	44.0	0	0	---	0.00	29.982 
23:30	45.1	45.1	45.1	96	44.0	0	0	---	0.00	29.981 
23:35	45.1	45.1	45.1	96	44.0	0	0	---	0.00	29.981 
23:40	45.1	45.1	45.1	96	44.0	0	0	---	0.00	29.981 
23:45	45.2	45.2	45.2	96	44.1	0	0	---	0.00	29.980 
23:50	45.4	45.4	45.4	96	44.3	0	1	248	0.00	29.980 
23:55	45.4	45.4	45.4	96	44.3	0	0	---	0.01	29.980 

CoCoRaHS
IN-AL-39
A2 Web Hosting
Creative Commons License
GoDaddy
search engine by freefind advanced

loaded 2018-11-19 18:43:13 • last modified 2010-11-18 10:43:29
Privacy PolicyDisclaimer
• wx.awcolley.com is powered by PmWiki v.2002016 •
• all content (unless otherwise noted) © 2018 A W Colley